METAR Data
IDs: Format: Raw Decoded Include TAF

Data at: 0526 UTC 19 Aug 2019

KVBT 190456Z AUTO 15006KT 10SM OVC100 26/21 A3000 RMK AO2 SLP147 T02560206
KVBT 190356Z AUTO 14006KT 10SM BKN100 27/21 A3000 RMK AO2 SLP145 T02670211
KVBT 190256Z AUTO 14004KT 10SM OVC100 27/21 A2999 RMK AO2 SLP143 6//// T02670211 53021
KVBT 190156Z AUTO 11005KT 10SM CLR 27/21 A2996 RMK AO2 SLP134 T02720211
KVBT 190056Z AUTO 13003KT 10SM CLR 27/22 A2994 RMK AO2 SLP128 T02720217
KVBT 182356Z AUTO 13004KT 10SM BKN100 28/22 A2992 RMK AO2 SLP122 T02830217 10300 20244 53002
KVBT 182256Z AUTO 18006KT 10SM CLR 29/21 A2993 RMK AO2 SLP122 T02890206
KVBT 182156Z AUTO 20007KT 10SM CLR 29/21 A2992 RMK AO2 SLP117 T02940206
KVBT 182056Z AUTO 23005KT 10SM CLR 29/21 A2992 RMK AO2 LTG DSNT W SLP119 T02940211 56013
KVBT 181956Z AUTO 23009KT 10SM CLR 28/20 A2993 RMK AO2 LTG DSNT W SLP123 T02780200
KVBT 181856Z AUTO 20008KT 10SM FEW110 25/20 A2994 RMK AO2 LTG DSNT SE AND S SLP128 T02500200
KVBT 181756Z AUTO 19005G14KT 10SM CLR 27/23 A2996 RMK AO2 LTG DSNT S AND SW TSB13E35RAB34E55 SLP133 P0000 60000 T02670233 10294 20233 58010
KVBT 181741Z AUTO 18007KT 10SM -RA CLR 27/23 A2996 RMK AO2 LTG DSNT S AND SW TSB13E35RAB34 P0000
KVBT 181720Z AUTO 20007KT 10SM VCTS SCT028 BKN035 28/24 A2998 RMK AO2 LTG DSNT SE AND SW TSB13
KVBT 181713Z AUTO 23007KT 10SM VCTS BKN028 BKN035 28/24 A2998 RMK AO2 LTG DSNT SW TSB13
KVBT 181656Z AUTO 24010KT 10SM FEW026 SCT032 28/24 A3000 RMK AO2 LTG DSNT SW TSB30E50 SLP146 T02830239
KVBT 181636Z AUTO 23010KT 10SM VCTS CLR 29/24 A3000 RMK AO2 LTG DSNT SW TSB30
KVBT 181556Z AUTO 21005KT 10SM FEW025 29/24 A3000 RMK AO2 SLP146 T02890239
KVBT 181456Z AUTO 17008KT 10SM CLR 28/22 A2999 RMK AO2 SLP142 60000 T02780222 53006
KVBT 181409Z AUTO 13006KT 10SM FEW028 26/21 A2996 RMK AO2
KVBT 181356Z AUTO 11008KT 10SM BKN028 24/21 A2995 RMK AO2 RAE06 SLP132 P0000 T02440206
KVBT 181256Z AUTO 05007KT 10SM -RA OVC024 23/20 A2998 RMK AO2 RAB50 SLP140 P0000 T02330200
KVBT 181156Z AUTO 01009KT 10SM BKN022 BKN070 24/22 A2997 RMK AO2 LTG DSNT N SLP136 7//// T02440217 10267 20239 53020
KVBT 181056Z AUTO 33003KT 10SM CLR 24/22 A2994 RMK AO2 LTG DSNT N SLP126 T02440217
KVBT 180956Z AUTO 17005KT 10SM CLR 25/21 A2990 RMK AO2 SLP111 T02500211
KVBT 180856Z AUTO 19006KT 10SM CLR 26/21 A2991 RMK AO2 SLP114 T02610211 53001
KVBT 180756Z AUTO 18009KT 10SM CLR 27/21 A2989 RMK AO2 SLP107 T02670211
KVBT 180656Z AUTO 18009G14KT 10SM CLR 27/21 A2990 RMK AO2 SLP111 T02670211
KVBT 180556Z AUTO 17009KT 10SM CLR 27/21 A2991 RMK AO2 SLP114 6//// T02670211 10311 20267 403330217 50003
KVBT 180456Z AUTO 18007KT 10SM CLR 27/21 A2991 RMK AO2 SLP117 T02670211
KVBT 180356Z AUTO 16008KT 10SM CLR 27/22 A2991 RMK AO2 SLP116 T02670217
KVBT 180256Z AUTO 16008KT 10SM CLR 27/22 A2990 RMK AO2 SLP111 6//// T02720222 53008
KVBT 180156Z AUTO 13007KT 10SM CLR 28/22 A2988 RMK AO2 SLP104 T02830217
KVBT 180056Z AUTO 15007KT 10SM CLR 29/22 A2987 RMK AO2 SLP101 T02940217
KVBT 172356Z AUTO 15010KT 10SM CLR 31/22 A2987 RMK AO2 SLP103 6//// T03110217 10333 20294 56012
KVBT 172256Z AUTO 17013G17KT 10SM CLR 32/21 A2988 RMK AO2 SLP104 T03220211
KVBT 172156Z AUTO 17009KT 10SM CLR 33/21 A2989 RMK AO2 SLP108 T03280211
KVBT 172056Z AUTO 16010KT 10SM CLR 33/22 A2991 RMK AO2 SLP114 6//// T03280222 56019
KVBT 171956Z AUTO 18007KT 150V220 10SM CLR 32/23 A2992 RMK AO2 SLP120 T03220228
KVBT 171856Z AUTO 17006KT 10SM CLR 31/23 A2995 RMK AO2 SLP128 T03110228
KVBT 171756Z AUTO 11003KT 10SM CLR 30/23 A2997 RMK AO2 SLP135 T03000228 10306 20222 58018